Date,TemperatureHighF,TemperatureAvgF,TemperatureLowF,DewpointHighF,DewpointAvgF,DewpointLowF,HumidityHigh,HumidityAvg,HumidityLow,PressureMaxIn,PressureMinIn,WindSpeedMaxMPH,WindSpeedAvgMPH,GustSpeedMaxMPH,PrecipitationSumIn
2014-1-1,50,34,20,34,23,18,94,66,30,30.42,30.09,11,1,12,0.10
2014-1-2,40,33,14,39,27,12,96,82,53,30.09,29.64,19,2,19,0.18
2014-1-3,15,8,2,12,6,0,92,88,77,30.52,29.95,18,3,19,0.00
2014-1-4,44,31,10,23,9,1,82,42,23,30.44,30.21,21,3,21,0.02
2014-1-5,51,45,37,46,39,23,87,79,57,30.21,29.50,28,6,28,0.00
2014-1-6,49,16,-6,44,13,-10,95,87,77,30.26,29.48,25,4,25,0.19
2014-1-7,10,-1,-8,0,-7,-13,87,76,56,30.60,30.25,15,2,16,0.00
2014-1-8,32,18,0,19,8,-3,87,68,45,30.68,30.55,12,2,16,0.00
2014-1-9,47,34,21,24,19,16,88,59,34,30.59,30.41,22,2,22,0.02
2014-1-10,54,45,36,48,40,19,95,84,44,30.41,29.93,34,4,34,0.17
2014-1-11,57,53,43,53,49,38,97,88,70,29.93,29.46,25,5,25,0.55
2014-1-12,48,40,34,34,31,26,85,71,52,30.11,29.74,17,2,17,0.00
2014-1-13,58,47,38,38,28,20,81,49,29,30.09,29.79,18,3,18,0.06
2014-1-14,46,41,32,42,37,29,97,86,58,29.92,29.74,15,2,18,0.20
2014-1-15,41,31,23,31,26,18,96,82,68,30.05,29.87,13,2,13,0.00
2014-1-16,35,27,20,24,17,14,81,66,45,30.07,29.90,14,2,14,0.00
2014-1-17,44,32,19,30,25,14,92,75,40,30.00,29.79,24,4,24,0.05
2014-1-18,25,18,11,22,12,5,92,77,62,30.08,29.95,17,2,17,0.00
2014-1-19,37,31,25,28,24,18,90,73,60,29.99,29.86,16,3,16,0.00
2014-1-20,49,37,27,30,25,20,92,63,43,29.90,29.81,19,2,19,0.00
2014-1-21,29,22,10,28,21,7,96,93,89,30.00,29.68,14,2,14,0.00
2014-1-22,12,6,-4,7,0,-7,89,77,57,30.20,30.00,10,2,10,0.00
2014-1-23,13,7,-1,10,2,-6,90,80,61,30.61,30.19,16,2,17,0.00
2014-1-24,21,9,-5,1,-3,-8,87,62,29,30.69,30.10,20,3,20,0.00
2014-1-25,26,22,13,21,10,-6,93,64,28,30.11,29.61,26,6,28,0.00
2014-1-26,45,25,0,30,11,-4,87,59,29,29.98,29.77,19,3,19,0.02
2014-1-27,44,24,5,32,14,-4,92,65,39,30.29,29.75,18,4,18,0.00
2014-1-28,10,4,-2,2,-4,-10,88,70,42,30.47,30.28,8,1,8,0.00
2014-1-29,19,3,-12,0,-6,-15,89,69,38,30.50,30.37,9,1,9,0.00
2014-1-30,38,18,-6,6,-3,-10,87,48,16,30.49,30.19,18,3,18,0.00
2014-1-31,46,36,24,26,15,4,75,45,25,30.23,30.16,16,1,16,0.00
2014-2-1,59,48,34,33,27,22,74,48,24,30.17,29.98,12,3,18,0.00
2014-2-2,51,46,35,48,40,30,100,81,47,30.07,29.93,15,2,15,0.46
2014-2-3,35,30,27,35,30,26,100,98,96,30.34,29.89,16,1,17,0.88
2014-2-4,41,34,27,38,32,27,100,94,80,30.35,29.89,29,2,30,0.32
2014-2-5,46,35,21,45,33,19,97,92,82,30.23,29.71,25,5,25,0.19
2014-2-6,24,21,18,19,18,16,93,87,79,30.42,30.23,11,1,11,0.00
2014-2-7,25,21,15,21,18,14,94,88,80,30.43,30.36,7,1,7,0.00
2014-2-8,30,25,16,27,22,14,94,91,84,30.38,30.22,5,0,5,0.00
2014-2-9,35,30,25,33,29,24,97,95,89,30.22,30.01,14,1,14,0.03
2014-2-10,26,19,8,24,16,6,96,87,68,30.38,30.16,7,1,8,0.00
2014-2-11,28,15,1,15,8,-1,92,77,50,30.49,30.36,7,1,7,0.00
2014-2-12,29,22,8,22,14,6,95,73,50,30.44,30.02,10,2,19,0.00
2014-2-13,30,27,23,29,26,22,100,96,92,30.02,29.66,0,0,0,0.00
2014-2-14,46,34,21,34,25,19,96,73,43,29.82,29.64,22,1,22,0.32
2014-2-15,36,24,18,34,22,15,97,92,82,30.14,29.59,17,3,21,0.10
2014-2-16,31,24,13,26,20,11,92,87,81,30.32,30.09,13,2,14,0.00
2014-2-17,42,29,15,29,19,13,93,69,32,30.38,29.96,31,4,31,0.02
2014-2-18,53,43,33,33,24,16,94,53,28,30.20,29.99,20,4,20,0.02
2014-2-19,59,48,31,48,34,19,95,61,31,30.11,29.80,23,4,26,0.09
2014-2-20,58,49,29,50,36,26,90,63,42,30.08,29.76,28,6,28,0.00
2014-2-21,60,47,30,52,35,20,96,67,31,30.04,29.63,24,4,25,0.39
2014-2-22,58,44,27,24,21,16,85,45,20,30.19,30.01,17,2,17,0.00
2014-2-23,60,48,31,35,26,19,96,47,27,30.04,29.88,16,3,16,0.06
2014-2-24,34,28,21,30,19,10,96,71,37,30.23,30.04,19,2,19,0.02
2014-2-25,29,25,21,21,19,16,88,78,68,30.18,30.06,12,1,12,0.00
2014-2-26,29,20,9,21,14,6,93,78,51,30.09,29.91,15,2,15,0.03
2014-2-27,29,20,6,12,7,1,92,58,43,30.16,29.89,21,3,21,0.00
2014-2-28,43,25,4,14,7,1,88,52,23,30.31,30.16,19,1,19,0.00
2014-3-1,47,39,30,33,23,12,69,52,39,30.29,30.16,12,1,12,0.00
2014-3-2,53,43,30,47,38,30,100,84,60,30.16,29.97,14,2,15,0.52
2014-3-3,30,15,0,30,13,-2,100,92,87,30.41,29.98,9,2,11,0.02
2014-3-4,41,20,-1,27,12,-4,93,74,37,30.42,30.26,10,1,12,0.24
2014-3-5,42,30,17,27,21,15,94,71,41,30.33,30.23,8,1,8,0.15
2014-3-6,45,34,23,30,22,18,88,62,42,30.33,30.14,14,2,21,0.00
2014-3-7,56,42,31,41,34,29,92,74,49,30.14,29.95,14,1,16,0.00
2014-3-8,59,43,29,39,32,28,97,69,37,30.08,29.98,20,2,20,0.00
2014-3-9,47,36,29,37,30,26,94,79,53,30.18,30.02,13,2,17,0.00
2014-3-10,63,44,27,34,29,24,94,61,28,30.08,29.82,21,2,21,0.00
2014-3-11,70,52,35,44,37,32,92,62,30,29.83,29.65,12,1,13,0.00
2014-3-12,59,55,48,55,46,37,94,74,56,29.65,29.14,12,4,19,0.10
2014-3-13,30,24,19,15,12,10,81,61,44,30.28,30.19,12,1,13,0.00
2014-3-14,59,43,20,31,21,10,83,44,32,30.27,29.95,20,4,22,0.00
2014-3-15,58,50,36,36,31,25,71,49,30,30.06,29.89,25,4,25,0.00
2014-3-16,42,34,29,35,30,25,97,85,71,30.07,29.88,13,1,13,0.10
2014-3-17,41,32,28,32,29,27,97,87,69,29.94,29.81,12,1,12,0.43
2014-3-18,49,38,31,38,32,26,90,79,63,30.09,29.92,20,3,20,0.29
2014-3-19,66,50,38,47,41,34,90,72,39,30.06,29.78,32,6,32,0.01
2014-3-20,51,42,32,43,29,22,91,60,39,30.06,29.90,21,3,21,0.00
2014-3-21,64,48,32,32,27,19,82,48,23,30.12,29.94,16,2,16,0.00
2014-3-22,61,53,38,35,27,17,71,38,20,30.03,29.88,16,3,16,0.00
2014-3-23,40,34,25,32,26,10,91,74,52,30.28,30.03,16,2,17,0.00
2014-3-24,39,26,12,16,11,5,87,55,27,30.33,30.14,13,1,13,0.00
2014-3-25,32,28,22,27,23,13,96,83,48,30.14,29.90,23,2,23,0.04
2014-3-26,31,22,14,20,13,8,93,69,45,30.39,30.09,14,2,14,0.03
2014-3-27,55,38,16,25,18,12,84,49,28,30.41,30.05,26,4,26,0.02
2014-3-28,63,54,44,51,42,24,92,65,38,30.06,29.97,18,4,29,0.24
2014-3-29,57,51,37,55,48,36,100,91,82,30.06,29.55,21,2,21,0.62
2014-3-30,44,35,28,37,29,26,97,80,55,30.19,29.80,22,4,22,0.16
2014-3-31,58,41,25,34,28,24,95,65,30,30.31,30.14,5,1,10,0.00
2014-4-1,68,52,37,37,34,30,80,55,26,30.14,30.00,5,0,6,0.01
2014-4-2,74,57,40,48,41,35,83,57,36,30.09,29.99,14,1,14,0.01
2014-4-3,74,61,51,58,51,48,100,72,42,30.04,29.75,17,2,17,0.74
2014-4-4,70,60,51,58,54,45,97,82,59,29.85,29.61,15,4,28,0.30
2014-4-5,51,41,32,45,32,28,86,72,50,30.18,29.83,14,2,15,0.00
2014-4-6,64,45,25,38,31,23,95,63,34,30.19,30.01,18,2,25,0.00
2014-4-7,59,52,44,54,45,32,92,80,50,30.02,29.48,25,6,27,0.13
2014-4-8,60,49,41,54,40,34,86,70,52,29.75,29.49,24,3,24,0.01
2014-4-9,55,46,34,46,36,30,93,70,43,30.13,29.74,16,1,16,0.05
2014-4-10,72,54,32,37,32,29,90,49,23,30.22,30.01,20,3,20,0.00
2014-4-11,72,60,50,53,43,32,100,57,33,30.08,29.94,23,3,23,0.06
2014-4-12,75,61,44,59,49,44,100,71,41,30.20,30.00,18,2,19,0.01
2014-4-13,85,71,61,53,48,40,59,45,22,30.08,29.85,21,4,21,0.00
2014-4-14,71,65,61,57,54,51,86,66,50,29.86,29.66,19,5,20,0.03
2014-4-15,61,41,26,56,37,19,96,89,73,30.16,29.53,17,4,17,0.13